Donegal Spirit — C6VE7 — position and weather

sailwx.info

Track history (hours):
 
Tides and Currents Weather Stations Pressure Air Temp Water Temp Dewpoint Dewpoint Depression Visibility Wind Speed Wind Dir Waves Ship Positions

Donegal Spirit

Last reported at 2018-May-17 13:34 UTC. Time now 2018-May-20 14:00 UTC.
Position N 01°25' E 104°30'.

Length 243 m; draft 8.6 m.

Type: Tanker. MMSI: 311177000.

Date/timePositionNaut miles runAvg speedWind from/ knotsBaromVisibWave heightAir tempDewpointWater temp
2018-May-17 13:34N 01°25' E 104°30'213.1
2018-May-17 13:26N 01°24' E 104°29'612.6
2018-May-17 12:56N 01°20' E 104°23'612.1
2018-May-17 12:27N 01°16' E 104°19'612.2
2018-May-17 11:59N 01°16' E 104°13'612.6
2018-May-17 11:30N 01°15' E 104°07'611.7
2018-May-17 10:59N 01°15' E 104°01'4 8.0
2018-May-17 10:30N 01°17' E 103°58'2 2.5
2018-May-17 09:46N 01°17' E 103°56'0 0.0
2018-May-17 09:24N 01°17' E 103°56'0 0.0
2018-May-17 08:46N 01°17' E 103°56'0 0.0
2018-May-17 08:16N 01°17' E 103°56'0 0.1
2018-May-17 07:58N 01°17' E 103°56'0 0.1
2018-May-17 07:28N 01°17' E 103°56'0 0.0
2018-May-17 06:58N 01°17' E 103°56'0 0.1
2018-May-17 06:19N 01°17' E 103°56'0 0.1
2018-May-17 05:55N 01°17' E 103°56'0 0.0
2018-May-17 05:18N 01°17' E 103°56'0 0.0
2018-May-17 05:00N 01°17' E 103°56'0 0.0
2018-May-17 04:21N 01°17' E 103°56'0 0.0
2018-May-17 03:51N 01°17' E 103°56'0 0.0
2018-May-17 03:21N 01°17' E 103°56'0 0.0
2018-May-17 02:54N 01°17' E 103°56'0 0.1
2018-May-17 02:30N 01°17' E 103°56'0 0.0
2018-May-17 01:51N 01°17' E 103°56'0 0.0
2018-May-17 01:27N 01°17' E 103°56'0 0.2
2018-May-17 00:42N 01°17' E 103°56'0 0.3
2018-May-17 00:30N 01°17' E 103°56'0 0.0
2018-May-16 23:59N 01°17' E 103°56'1 1.5
2018-May-16 23:30N 01°17' E 103°57'2 4.4
2018-May-16 22:59N 01°15' E 103°56'4 8.4
2018-May-16 22:30N 01°13' E 103°52'611.1
2018-May-16 22:00N 01°14' E 103°47'612.7
2018-May-16 21:30N 01°13' E 103°41'4 8.0
2018-May-16 21:00N 01°17' E 103°40'2 3.7
2018-May-16 20:29N 01°17' E 103°42'0 0.1
2018-May-16 19:50N 01°17' E 103°42'0 0.0
2018-May-16 19:29N 01°17' E 103°42'0 0.0
2018-May-16 18:50N 01°17' E 103°42'0 0.0
2018-May-16 18:26N 01°17' E 103°42'0 0.0
2018-May-16 17:59N 01°17' E 103°42'0 0.0
2018-May-16 17:29N 01°17' E 103°42'0 0.0
2018-May-16 16:59N 01°17' E 103°42'0 0.0
2018-May-16 16:28N 01°17' E 103°42'0 0.0
2018-May-16 15:50N 01°17' E 103°42'0 0.0
2018-May-16 15:20N 01°17' E 103°42'0 0.0
2018-May-16 14:56N 01°17' E 103°42'0 0.0
2018-May-16 14:14N 01°17' E 103°42'0 0.0
2018-May-16 13:45N 01°17' E 103°42'0 0.0
2018-May-16 13:26N 01°17' E 103°42'0 0.0
2018-May-16 12:54N 01°17' E 103°42'0 0.0
2018-May-16 12:26N 01°17' E 103°42'0 0.0
2018-May-16 11:56N 01°17' E 103°42'0 0.0
2018-May-16 11:07N 01°17' E 103°42'0 0.0
2018-May-16 10:50N 01°17' E 103°42'0 0.0
2018-May-16 10:29N 01°17' E 103°42'0 0.0
2018-May-16 09:59N 01°17' E 103°42'0 0.0
2018-May-16 09:17N 01°17' E 103°42'0 0.0
2018-May-16 08:53N 01°17' E 103°42'0 0.0
2018-May-16 08:23N 01°17' E 103°42'0 0.0
2018-May-16 07:59N 01°17' E 103°42'0 0.0
2018-May-16 07:17N 01°17' E 103°42'0 0.0
2018-May-16 06:53N 01°17' E 103°42'0 0.0
2018-May-16 06:29N 01°17' E 103°42'0 0.0
2018-May-16 05:56N 01°17' E 103°42'0 0.0
2018-May-16 05:11N 01°17' E 103°42'0 0.0
2018-May-16 04:50N 01°17' E 103°42'0 0.0
2018-May-16 04:29N 01°17' E 103°42'0 0.0
2018-May-16 03:41N 01°17' E 103°42'0 0.0
2018-May-16 03:20N 01°17' E 103°42'0 0.0
2018-May-16 02:44N 01°17' E 103°42'0 0.0
2018-May-16 02:28N 01°17' E 103°42'0 0.0
2018-May-16 01:56N 01°17' E 103°42'0 0.0
2018-May-16 01:13N 01°17' E 103°42'0 0.0
2018-May-16 00:56N 01°17' E 103°42'0 0.0
2018-May-16 00:29N 01°17' E 103°42'0 0.0
2018-May-15 23:53N 01°17' E 103°42'0 0.0
2018-May-15 23:26N 01°17' E 103°42'0 0.0
2018-May-15 22:49N 01°17' E 103°42'0 0.0
2018-May-15 22:29N 01°17' E 103°42'0 0.0
2018-May-15 21:59N 01°17' E 103°42'0 0.0
2018-May-15 21:25N 01°17' E 103°42'0 0.0
2018-May-15 20:58N 01°17' E 103°42'0 0.0
2018-May-15 20:26N 01°17' E 103°42'0 0.0
2018-May-15 19:56N 01°17' E 103°42'0 0.0
2018-May-15 19:28N 01°17' E 103°42'0 0.0
2018-May-15 18:59N 01°17' E 103°42'0 0.0
2018-May-15 18:29N 01°17' E 103°42'0 0.0
2018-May-15 17:59N 01°17' E 103°42'0 0.0
2018-May-15 17:29N 01°17' E 103°42'0 0.0
2018-May-15 16:59N 01°17' E 103°42'0 0.0
2018-May-15 16:29N 01°17' E 103°42'0 0.0
2018-May-15 15:56N 01°17' E 103°42'0 0.0
2018-May-15 15:29N 01°17' E 103°42'0 0.0
2018-May-15 14:47N 01°17' E 103°42'0 0.0
2018-May-15 14:16N 01°17' E 103°42'0 0.0
2018-May-15 13:49N 01°17' E 103°42'0 0.0
2018-May-15 13:29N 01°17' E 103°42'0 0.0
2018-May-15 12:55N 01°17' E 103°42'0 0.0
2018-May-15 12:23N 01°17' E 103°42'0 0.0
2018-May-15 11:59N 01°17' E 103°42'0 0.0
2018-May-15 11:20N 01°17' E 103°42'0 0.0
2018-May-15 10:56N 01°17' E 103°42'0 0.0
2018-May-15 10:25N 01°17' E 103°42'0 0.0
2018-May-15 09:59N 01°17' E 103°42'0 0.0
2018-May-15 09:25N 01°17' E 103°42'0 0.0
2018-May-15 08:58N 01°17' E 103°42'0 0.0
2018-May-15 08:22N 01°17' E 103°42'0 0.0
2018-May-15 07:49N 01°17' E 103°42'0 0.0
2018-May-15 07:28N 01°17' E 103°42'0 0.0
2018-May-15 06:50N 01°17' E 103°42'0 0.0
2018-May-15 06:29N 01°17' E 103°42'0 0.0
2018-May-15 05:59N 01°17' E 103°42'0 0.0
2018-May-15 05:29N 01°17' E 103°42'0 0.0
2018-May-15 04:56N 01°17' E 103°42'0 0.0
2018-May-15 04:20N 01°17' E 103°42'0 0.0
2018-May-15 03:59N 01°17' E 103°42'0 0.0
2018-May-15 03:23N 01°17' E 103°42'0 0.0
2018-May-15 02:59N 01°17' E 103°42'0 0.0
2018-May-15 02:26N 01°17' E 103°42'0 0.0
2018-May-15 01:53N 01°17' E 103°42'0 0.0
2018-May-15 01:26N 01°17' E 103°42'0 0.0
2018-May-15 00:56N 01°17' E 103°42'0 0.0
2018-May-15 00:26N 01°17' E 103°42'0 0.0
2018-May-14 23:59N 01°17' E 103°42'0 0.0
2018-May-14 23:29N 01°17' E 103°42'0 0.0
2018-May-14 22:55N 01°17' E 103°42'0 0.0
2018-May-14 22:26N 01°17' E 103°42'0 0.0
2018-May-14 21:55N 01°17' E 103°42'0 0.0
2018-May-14 21:26N 01°17' E 103°42'0 0.0
2018-May-14 20:50N 01°17' E 103°42'0 0.0
2018-May-14 20:29N 01°17' E 103°42'0 0.0
2018-May-14 19:56N 01°17' E 103°42'0 0.0
2018-May-14 19:26N 01°17' E 103°42'0 0.0
2018-May-14 18:56N 01°17' E 103°42'0 0.0
2018-May-14 18:14N 01°17' E 103°42'0 0.0
2018-May-14 17:59N 01°17' E 103°42'0 0.0
2018-May-14 17:29N 01°17' E 103°42'0 0.0
2018-May-14 16:44N 01°17' E 103°42'0 0.0
2018-May-14 16:20N 01°17' E 103°42'0 0.0
2018-May-14 15:59N 01°17' E 103°42'0 0.0
2018-May-14 15:26N 01°17' E 103°42'0 0.0
2018-May-14 14:55N 01°17' E 103°42'0 0.0
2018-May-14 14:20N 01°17' E 103°42'0 0.0
2018-May-14 13:55N 01°17' E 103°42'0 0.0
2018-May-14 13:26N 01°17' E 103°42'0 0.0
2018-May-14 12:55N 01°17' E 103°42'0 0.0
2018-May-14 12:26N 01°17' E 103°42'0 0.1
2018-May-14 11:59N 01°17' E 103°42'1 1.5
2018-May-14 11:31N 01°18' E 103°42'3 5.8
2018-May-14 11:00N 01°17' E 103°39'611.7
2018-May-14 10:31N 01°11' E 103°41'612.7
2018-May-14 10:00N 01°11' E 103°47'714.4
2018-May-14 09:31N 01°14' E 103°54'4 8.3
2018-May-14 09:00N 01°17' E 103°57'0 0.4
2018-May-14 08:26N 01°17' E 103°57'0 0.3
2018-May-14 07:56N 01°17' E 103°57'0 0.2
2018-May-14 07:29N 01°17' E 103°57'0 0.0
2018-May-14 06:59N 01°17' E 103°57'0 0.0
2018-May-14 06:27N 01°17' E 103°57'0 0.0
2018-May-14 06:00N 01°17' E 103°57'0 0.2
2018-May-14 05:26N 01°17' E 103°57'0 0.2
2018-May-14 04:59N 01°17' E 103°57'0 0.1
2018-May-14 04:29N 01°17' E 103°57'0 0.0
2018-May-14 03:56N 01°17' E 103°57'0 0.0
2018-May-14 03:23N 01°17' E 103°57'0 0.0
2018-May-14 02:56N 01°17' E 103°57'0 0.1
2018-May-14 02:29N 01°17' E 103°57'0 0.0
2018-May-14 01:56N 01°17' E 103°57'0 0.0
2018-May-14 01:20N 01°17' E 103°57'0 0.2
2018-May-14 00:59N 01°17' E 103°57'0 0.1
2018-May-14 00:29N 01°17' E 103°57'0 0.0
2018-May-13 23:53N 01°17' E 103°57'0 0.2
2018-May-13 23:29N 01°17' E 103°57'0 0.3
2018-May-13 22:56N 01°17' E 103°57'0 0.2
2018-May-13 22:29N 01°17' E 103°57'0 0.0
2018-May-13 21:56N 01°17' E 103°57'0 0.1
2018-May-13 21:26N 01°17' E 103°57'0 0.1
2018-May-13 20:57N 01°17' E 103°57'0 0.0
2018-May-13 20:29N 01°17' E 103°57'0 0.0
2018-May-13 19:57N 01°17' E 103°57'0 0.0
2018-May-13 19:29N 01°17' E 103°57'0 0.0
2018-May-13 18:59N 01°17' E 103°57'0 0.0
2018-May-13 18:27N 01°17' E 103°57'0 0.0
2018-May-13 17:59N 01°17' E 103°57'0 0.0
2018-May-13 17:26N 01°17' E 103°57'0 0.0
2018-May-13 16:57N 01°17' E 103°57'0 0.0
2018-May-13 16:27N 01°17' E 103°57'0 0.3
2018-May-13 15:59N 01°17' E 103°57'0 0.2
2018-May-13 15:27N 01°17' E 103°57'0 0.0
2018-May-13 14:59N 01°17' E 103°57'0 0.0
2018-May-13 14:26N 01°17' E 103°57'0 0.0
2018-May-13 13:59N 01°17' E 103°57'0 0.1
2018-May-13 13:30N 01°17' E 103°57'0 0.1
2018-May-13 12:59N 01°17' E 103°57'0 0.0
2018-May-13 12:29N 01°17' E 103°57'0 0.1
2018-May-13 11:59N 01°17' E 103°57'0 0.1
2018-May-13 11:20N 01°17' E 103°57'0 0.1
2018-May-13 10:50N 01°17' E 103°57'0 0.0
2018-May-13 10:26N 01°17' E 103°57'0 0.0
2018-May-13 09:56N 01°17' E 103°57'0 0.1
2018-May-13 09:23N 01°17' E 103°57'0 0.3
2018-May-13 08:50N 01°17' E 103°57'0 0.2
2018-May-13 08:29N 01°17' E 103°57'0 0.0
2018-May-13 07:56N 01°17' E 103°57'0 0.0
2018-May-13 07:29N 01°17' E 103°57'0 0.0
2018-May-13 06:59N 01°17' E 103°57'0 0.1
2018-May-13 06:29N 01°17' E 103°57'0 0.0
2018-May-13 05:59N 01°17' E 103°57'0 0.0
2018-May-13 05:21N 01°17' E 103°57'0 0.2
2018-May-13 05:00N 01°17' E 103°57'0 0.0
2018-May-13 04:30N 01°17' E 103°57'0 0.0
2018-May-13 03:48N 01°17' E 103°57'0 0.0
2018-May-13 03:29N 01°17' E 103°57'0 0.1
2018-May-13 02:59N 01°17' E 103°57'0 0.1
2018-May-13 02:29N 01°17' E 103°57'0 0.1
2018-May-13 01:59N 01°17' E 103°57'0 0.0
2018-May-13 01:29N 01°17' E 103°57'0 0.1
2018-May-13 00:56N 01°17' E 103°57'0 0.0
2018-May-13 00:29N 01°17' E 103°57'0 0.1
2018-May-12 23:59N 01°17' E 103°57'0 0.1
2018-May-12 23:29N 01°17' E 103°57'0 0.0
2018-May-12 22:56N 01°17' E 103°57'0 0.0
2018-May-12 22:29N 01°17' E 103°57'0 0.0
2018-May-12 21:44N 01°17' E 103°57'0 0.2
2018-May-12 21:23N 01°17' E 103°57'0 0.1
2018-May-12 20:59N 01°17' E 103°57'0 0.1
2018-May-12 20:26N 01°17' E 103°57'0 0.1
2018-May-12 19:59N 01°17' E 103°57'0 0.0
2018-May-12 19:29N 01°17' E 103°57'0 0.0
2018-May-12 18:57N 01°17' E 103°57'0 0.1
2018-May-12 18:29N 01°17' E 103°57'0 0.1
2018-May-12 17:53N 01°17' E 103°57'0 0.0
2018-May-12 17:17N 01°17' E 103°57'0 0.0
2018-May-12 16:58N 01°17' E 103°57'0 0.1
2018-May-12 16:29N 01°17' E 103°57'0 0.0
2018-May-12 15:53N 01°17' E 103°57'0 0.1
2018-May-12 15:26N 01°17' E 103°57'0 0.1
2018-May-12 14:59N 01°17' E 103°57'0 0.0
2018-May-12 14:29N 01°17' E 103°57'0 0.0
2018-May-12 13:59N 01°17' E 103°57'0 0.0
2018-May-12 13:23N 01°17' E 103°57'0 0.2
2018-May-12 12:56N 01°17' E 103°57'0 0.0
2018-May-12 12:23N 01°17' E 103°57'0 0.0
2018-May-12 11:53N 01°17' E 103°57'0 0.1
2018-May-12 11:29N 01°17' E 103°57'0 0.0
2018-May-12 10:59N 01°17' E 103°57'0 0.1
2018-May-12 10:29N 01°17' E 103°57'0 0.1
2018-May-12 09:40N 01°17' E 103°57'0 0.0
2018-May-12 09:29N 01°17' E 103°57'0 0.0
2018-May-12 08:59N 01°17' E 103°57'0 0.1
2018-May-12 08:27N 01°17' E 103°57'0 0.1
2018-May-12 07:50N 01°17' E 103°57'0 0.2
2018-May-12 07:17N 01°17' E 103°57'0 0.2
2018-May-12 06:59N 01°17' E 103°57'0 0.1
2018-May-12 06:19N 01°17' E 103°57'0 0.0
2018-May-12 05:56N 01°17' E 103°57'0 0.0
2018-May-12 05:29N 01°17' E 103°57'0 0.0
2018-May-12 04:43N 01°17' E 103°57'0 0.2
2018-May-12 04:26N 01°17' E 103°57'0 0.0
2018-May-12 03:56N 01°17' E 103°57'0 0.1
2018-May-12 03:20N 01°17' E 103°57'0 0.1
2018-May-12 02:38N 01°17' E 103°57'0 0.0
2018-May-12 02:25N 01°17' E 103°57'0 0.0
2018-May-12 01:50N 01°17' E 103°57'0 0.1
2018-May-12 00:35N 01°17' E 103°57'0 0.1
2018-May-12 00:26N 01°17' E 103°57'0 0.1
2018-May-11 23:56N 01°17' E 103°57'0 0.1
2018-May-11 23:23N 01°17' E 103°57'0 0.1
2018-May-11 22:53N 01°17' E 103°57'0 0.2
2018-May-11 22:29N 01°17' E 103°57'0 0.0
2018-May-11 21:59N 01°17' E 103°57'0 0.0
2018-May-11 21:29N 01°17' E 103°57'0 0.0
2018-May-11 20:58N 01°17' E 103°57'0 0.0
2018-May-11 20:26N 01°17' E 103°57'0 0.0
2018-May-11 19:59N 01°17' E 103°57'0 0.1
2018-May-11 19:29N 01°17' E 103°57'0 0.0
2018-May-11 18:53N 01°17' E 103°57'0 0.0
2018-May-11 18:30N 01°17' E 103°57'0 0.0
2018-May-11 17:56N 01°17' E 103°57'0 0.0
2018-May-11 17:23N 01°17' E 103°57'0 0.1
2018-May-11 16:55N 01°17' E 103°57'0 0.0
2018-May-11 16:29N 01°17' E 103°57'0 0.0
2018-May-11 15:56N 01°17' E 103°57'0 0.0
2018-May-11 15:29N 01°17' E 103°57'0 0.0
2018-May-11 14:56N 01°17' E 103°57'0 0.1
2018-May-11 14:17N 01°17' E 103°57'0 0.1
2018-May-11 13:11N 01°17' E 103°57'0 0.2
2018-May-11 12:49N 01°17' E 103°57'0 0.0
2018-May-11 12:26N 01°17' E 103°57'0 0.1
2018-May-11 11:56N 01°17' E 103°57'0 0.0
2018-May-11 11:26N 01°17' E 103°57'0 0.1
2018-May-11 10:47N 01°17' E 103°57'0 0.0
2018-May-11 10:29N 01°17' E 103°57'0 0.0
2018-May-11 09:58N 01°17' E 103°57'0 0.1
2018-May-11 09:26N 01°17' E 103°57'0 0.1
2018-May-11 08:53N 01°17' E 103°57'0 0.2
2018-May-11 08:28N 01°17' E 103°57'0 0.1
2018-May-11 07:59N 01°17' E 103°57'0 0.0
2018-May-11 07:28N 01°17' E 103°57'0 0.0
2018-May-11 06:55N 01°17' E 103°57'0 0.1
2018-May-11 06:29N 01°17' E 103°57'0 0.1
2018-May-11 05:48N 01°17' E 103°57'0 0.0
2018-May-11 05:19N 01°17' E 103°57'0 0.0
2018-May-11 04:56N 01°17' E 103°57'0 0.0
2018-May-11 04:29N 01°17' E 103°57'0 0.0
2018-May-11 03:59N 01°17' E 103°57'0 0.0
2018-May-11 03:26N 01°17' E 103°57'0 0.0
2018-May-11 02:59N 01°17' E 103°57'0 0.0
2018-May-11 02:29N 01°17' E 103°57'0 0.1
2018-May-11 01:59N 01°17' E 103°57'0 0.1
2018-May-11 01:20N 01°17' E 103°57'0 0.2
2018-May-11 00:50N 01°17' E 103°57'0 0.1
2018-May-11 00:29N 01°17' E 103°57'0 0.0
2018-May-10 23:59N 01°17' E 103°57'0 0.1
2018-May-10 23:26N 01°17' E 103°57'0 0.0
2018-May-10 22:59N 01°17' E 103°57'0 0.0
2018-May-10 22:29N 01°17' E 103°57'0 0.0
2018-May-10 21:56N 01°17' E 103°57'0 0.0
2018-May-10 21:26N 01°17' E 103°57'0 0.0
2018-May-10 20:56N 01°17' E 103°57'0 0.0
2018-May-10 20:29N 01°17' E 103°57'0 0.0
2018-May-10 19:58N 01°17' E 103°57'0 0.0
2018-May-10 19:23N 01°17' E 103°57'0 0.0
2018-May-10 18:55N 01°17' E 103°57'0 0.0
2018-May-10 18:26N 01°17' E 103°57'0 0.0
2018-May-10 17:58N 01°17' E 103°57'0 0.0
2018-May-10 17:28N 01°17' E 103°57'0 0.0
2018-May-10 16:55N 01°17' E 103°57'0 0.0
2018-May-10 16:23N 01°17' E 103°57'0 0.0
2018-May-10 15:59N 01°17' E 103°57'0 0.0
2018-May-10 15:29N 01°17' E 103°57'0 0.0
2018-May-10 14:56N 01°17' E 103°57'0 0.0
2018-May-10 14:17N 01°17' E 103°57'0 0.0
2018-May-10 13:56N 01°17' E 103°57'0 0.0
2018-May-10 13:26N 01°17' E 103°57'0 0.0
2018-May-10 12:47N 01°17' E 103°57'0 0.0
2018-May-10 12:14N 01°17' E 103°57'0 0.0
2018-May-10 11:58N 01°17' E 103°57'0 0.0
2018-May-10 11:26N 01°17' E 103°57'0 0.0
2018-May-10 10:52N 01°17' E 103°57'0 0.0
2018-May-10 10:29N 01°17' E 103°57'0 0.0
2018-May-10 09:59N 01°17' E 103°57'0 0.0
2018-May-10 09:20N 01°17' E 103°57'0 0.1
2018-May-10 08:53N 01°17' E 103°57'0 0.2
2018-May-10 08:29N 01°17' E 103°57'0 0.2
2018-May-10 07:59N 01°17' E 103°57'0 0.0
2018-May-10 07:23N 01°17' E 103°57'0 0.0
2018-May-10 06:59N 01°17' E 103°57'0 0.0
2018-May-10 06:28N 01°17' E 103°57'0 0.0
2018-May-10 05:59N 01°17' E 103°57'0 0.1
2018-May-10 05:26N 01°17' E 103°57'0 0.1
2018-May-10 04:59N 01°17' E 103°57'0 0.1
2018-May-10 04:29N 01°17' E 103°57'0 0.0
2018-May-10 03:58N 01°17' E 103°57'0 0.0
2018-May-10 03:26N 01°17' E 103°57'0 0.0
2018-May-10 02:53N 01°17' E 103°57'0 0.0
2018-May-10 02:26N 01°17' E 103°57'0 0.0
2018-May-10 01:55N 01°17' E 103°57'0 0.0
2018-May-10 01:26N 01°17' E 103°57'0 0.0
2018-May-10 00:55N 01°17' E 103°57'0 0.0
2018-May-10 00:29N 01°17' E 103°57'0 0.1
2018-May-09 23:56N 01°17' E 103°57'0 0.0
2018-May-09 23:29N 01°17' E 103°57'0 0.2
2018-May-09 22:53N 01°17' E 103°57'0 0.1
2018-May-09 22:26N 01°17' E 103°57'0 0.1
2018-May-09 21:59N 01°17' E 103°57'0 0.1
2018-May-09 21:29N 01°17' E 103°57'0 0.1
2018-May-09 20:59N 01°17' E 103°57'0 0.0
2018-May-09 20:22N 01°17' E 103°57'0 0.0
2018-May-09 19:50N 01°17' E 103°57'0 0.0
2018-May-09 19:16N 01°17' E 103°57'0 0.0
2018-May-09 18:50N 01°17' E 103°57'0 0.0
2018-May-09 18:17N 01°17' E 103°57'0 0.0
2018-May-09 17:53N 01°17' E 103°57'0 0.0
2018-May-09 17:13N 01°17' E 103°57'0 0.0
2018-May-09 16:47N 01°17' E 103°57'0 0.0
2018-May-09 16:23N 01°17' E 103°57'0 0.0
2018-May-09 15:59N 01°17' E 103°57'0 0.0
2018-May-09 15:28N 01°17' E 103°57'0 0.0
2018-May-09 14:56N 01°17' E 103°57'0 0.0
2018-May-09 13:50N 01°17' E 103°57'0 0.0
2018-May-09 13:26N 01°17' E 103°57'0 0.0
2018-May-09 12:53N 01°17' E 103°57'0 0.0
2018-May-09 12:20N 01°17' E 103°57'0 0.0
2018-May-09 11:43N 01°17' E 103°57'0 0.0
2018-May-09 11:23N 01°17' E 103°57'0 0.0
2018-May-09 10:44N 01°17' E 103°57'0 0.0
2018-May-09 10:28N 01°17' E 103°57'0 0.0
2018-May-09 09:55N 01°17' E 103°57'0 0.0
2018-May-09 09:29N 01°17' E 103°57'0 0.0
2018-May-09 08:53N 01°17' E 103°57'0 0.1
2018-May-09 08:26N 01°17' E 103°57'0 0.2
2018-May-09 07:59N 01°17' E 103°57'0 0.0
2018-May-09 07:29N 01°17' E 103°57'0 0.1
2018-May-09 06:50N 01°17' E 103°57'0 0.2
2018-May-09 06:26N 01°17' E 103°57'0 0.1
2018-May-09 05:41N 01°17' E 103°57'0 0.0
2018-May-09 05:28N 01°17' E 103°57'0 0.0
2018-May-09 04:56N 01°17' E 103°57'0 0.1
2018-May-09 04:28N 01°17' E 103°57'0 0.0
2018-May-09 03:59N 01°17' E 103°57'0 0.0
2018-May-09 03:28N 01°17' E 103°57'0 0.0
2018-May-09 02:59N 01°17' E 103°57'0 0.0
2018-May-09 02:28N 01°17' E 103°57'0 0.0
2018-May-09 01:57N 01°17' E 103°57'0 0.0
2018-May-09 01:27N 01°17' E 103°57'0 0.0
2018-May-09 00:54N 01°17' E 103°57'0 0.0
2018-May-09 00:30N 01°17' E 103°57'0 0.0
2018-May-09 00:00N 01°17' E 103°57'0 0.0
2018-May-08 23:30N 01°17' E 103°57'0 0.1
2018-May-08 23:00N 01°17' E 103°57'0 0.1
2018-May-08 22:30N 01°17' E 103°57'0 0.1
2018-May-08 21:58N 01°17' E 103°57'0 0.1
2018-May-08 21:27N 01°17' E 103°57'0 0.1
2018-May-08 20:57N 01°17' E 103°57'0 0.0
2018-May-08 20:27N 01°17' E 103°57'0 0.0
2018-May-08 19:39N 01°17' E 103°57'0 0.0
2018-May-08 19:30N 01°17' E 103°57'0 0.0
2018-May-08 18:54N 01°17' E 103°57'0 0.0
2018-May-08 18:24N 01°17' E 103°57'0 0.1
2018-May-08 17:57N 01°17' E 103°57'0 0.1
2018-May-08 17:15N 01°17' E 103°57'0 0.0
2018-May-08 16:48N 01°17' E 103°57'0 0.2
2018-May-08 16:30N 01°17' E 103°57'0 0.1
2018-May-08 15:51N 01°17' E 103°57'0 0.0
2018-May-08 15:15N 01°17' E 103°57'0 0.0
2018-May-08 14:52N 01°17' E 103°57'0 0.0
2018-May-08 14:12N 01°17' E 103°57'0 0.0
2018-May-08 13:49N 01°17' E 103°57'0 0.0
2018-May-08 13:18N 01°17' E 103°57'0 0.0
2018-May-08 12:57N 01°17' E 103°57'0 0.0
2018-May-08 12:30N 01°17' E 103°57'0 0.1
2018-May-08 11:57N 01°17' E 103°57'0 0.0
2018-May-08 11:28N 01°17' E 103°57'0 0.0
2018-May-08 10:52N 01°17' E 103°57'0 0.1
2018-May-08 10:21N 01°17' E 103°57'0 0.0
2018-May-08 09:51N 01°17' E 103°57'0 0.0
2018-May-08 09:30N 01°17' E 103°57'0 0.0
2018-May-08 08:48N 01°17' E 103°57'0 0.1
2018-May-08 08:30N 01°17' E 103°57'0 0.1
2018-May-08 07:54N 01°17' E 103°57'0 0.0
2018-May-08 07:29N 01°17' E 103°57'0 0.1
2018-May-08 06:56N 01°17' E 103°57'0 0.0
2018-May-08 06:27N 01°17' E 103°57'0 0.0
2018-May-08 05:54N 01°17' E 103°57'0 0.1
2018-May-08 05:24N 01°17' E 103°57'0 0.0
2018-May-08 04:48N 01°17' E 103°57'0 0.0
2018-May-08 04:24N 01°17' E 103°57'0 0.0
2018-May-08 03:51N 01°17' E 103°57'0 0.0
2018-May-08 03:30N 01°17' E 103°57'0 0.0
2018-May-08 02:55N 01°17' E 103°57'0 0.0
2018-May-08 02:23N 01°17' E 103°57'0 0.0
2018-May-08 01:56N 01°17' E 103°57'0 0.0
2018-May-08 01:29N 01°17' E 103°57'0 0.0
2018-May-08 00:58N 01°17' E 103°57'0 0.0
2018-May-08 00:21N 01°17' E 103°57'0 0.0
2018-May-07 23:58N 01°17' E 103°57'0 0.0
2018-May-07 23:30N 01°17' E 103°57'0 0.0
2018-May-07 22:56N 01°17' E 103°57'0 0.0
2018-May-07 22:29N 01°17' E 103°57'0 0.0
2018-May-07 21:58N 01°17' E 103°57'0 0.0
2018-May-07 21:25N 01°17' E 103°57'0 0.1
2018-May-07 20:58N 01°17' E 103°57'0 0.1
2018-May-07 20:29N 01°17' E 103°57'0 0.1
2018-May-07 19:55N 01°17' E 103°57'0 0.1
2018-May-07 19:30N 01°17' E 103°57'0 0.1
2018-May-07 18:48N 01°17' E 103°57'0 0.1
2018-May-07 18:30N 01°17' E 103°57'0 0.0
2018-May-07 17:52N 01°17' E 103°57'0 0.1
2018-May-07 17:27N 01°17' E 103°57'0 0.0
2018-May-07 16:57N 01°17' E 103°57'0 0.1
2018-May-07 16:30N 01°17' E 103°57'0 0.0
2018-May-07 15:48N 01°17' E 103°57'0 0.0
2018-May-07 15:30N 01°17' E 103°57'0 0.0
2018-May-07 14:54N 01°17' E 103°57'0 0.0
2018-May-07 14:18N 01°17' E 103°57'0 0.0
2018-May-07 13:42N 01°17' E 103°57'  
Track history (hours):
 
Tides and Currents Weather Stations Pressure Air Temp Water Temp Dewpoint Dewpoint Depression Visibility Wind Speed Wind Dir Waves Ship Positions

Donegal Spirit

Last reported at 2018-May-17 13:34 UTC. Time now 2018-May-20 14:00 UTC.
Position N 01°25' E 104°30'.

Length 243 m; draft 8.6 m.

Type: Tanker. MMSI: 311177000.

Date/timePositionNaut miles runAvg speedWind from/ knotsBaromVisibWave heightAir tempDewpointWater temp
2018-May-17 13:34N 01°25' E 104°30'213.1
2018-May-17 13:26N 01°24' E 104°29'612.6
2018-May-17 12:56N 01°20' E 104°23'612.1
2018-May-17 12:27N 01°16' E 104°19'612.2
2018-May-17 11:59N 01°16' E 104°13'612.6
2018-May-17 11:30N 01°15' E 104°07'611.7
2018-May-17 10:59N 01°15' E 104°01'4 8.0
2018-May-17 10:30N 01°17' E 103°58'2 2.5
2018-May-17 09:46N 01°17' E 103°56'0 0.0
2018-May-17 09:24N 01°17' E 103°56'0 0.0
2018-May-17 08:46N 01°17' E 103°56'0 0.0
2018-May-17 08:16N 01°17' E 103°56'0 0.1
2018-May-17 07:58N 01°17' E 103°56'0 0.1
2018-May-17 07:28N 01°17' E 103°56'0 0.0
2018-May-17 06:58N 01°17' E 103°56'0 0.1
2018-May-17 06:19N 01°17' E 103°56'0 0.1
2018-May-17 05:55N 01°17' E 103°56'0 0.0
2018-May-17 05:18N 01°17' E 103°56'0 0.0
2018-May-17 05:00N 01°17' E 103°56'0 0.0
2018-May-17 04:21N 01°17' E 103°56'0 0.0
2018-May-17 03:51N 01°17' E 103°56'0 0.0
2018-May-17 03:21N 01°17' E 103°56'0 0.0
2018-May-17 02:54N 01°17' E 103°56'0 0.1
2018-May-17 02:30N 01°17' E 103°56'0 0.0
2018-May-17 01:51N 01°17' E 103°56'0 0.0
2018-May-17 01:27N 01°17' E 103°56'0 0.2
2018-May-17 00:42N 01°17' E 103°56'0 0.3
2018-May-17 00:30N 01°17' E 103°56'0 0.0
2018-May-16 23:59N 01°17' E 103°56'1 1.5
2018-May-16 23:30N 01°17' E 103°57'2 4.4
2018-May-16 22:59N 01°15' E 103°56'4 8.4
2018-May-16 22:30N 01°13' E 103°52'611.1
2018-May-16 22:00N 01°14' E 103°47'612.7
2018-May-16 21:30N 01°13' E 103°41'4 8.0
2018-May-16 21:00N 01°17' E 103°40'2 3.7
2018-May-16 20:29N 01°17' E 103°42'0 0.1
2018-May-16 19:50N 01°17' E 103°42'0 0.0
2018-May-16 19:29N 01°17' E 103°42'0 0.0
2018-May-16 18:50N 01°17' E 103°42'0 0.0
2018-May-16 18:26N 01°17' E 103°42'0 0.0
2018-May-16 17:59N 01°17' E 103°42'0 0.0
2018-May-16 17:29N 01°17' E 103°42'0 0.0
2018-May-16 16:59N 01°17' E 103°42'0 0.0
2018-May-16 16:28N 01°17' E 103°42'0 0.0
2018-May-16 15:50N 01°17' E 103°42'0 0.0
2018-May-16 15:20N 01°17' E 103°42'0 0.0
2018-May-16 14:56N 01°17' E 103°42'0 0.0
2018-May-16 14:14N 01°17' E 103°42'0 0.0
2018-May-16 13:45N 01°17' E 103°42'0 0.0
2018-May-16 13:26N 01°17' E 103°42'0 0.0
2018-May-16 12:54N 01°17' E 103°42'0 0.0
2018-May-16 12:26N 01°17' E 103°42'0 0.0
2018-May-16 11:56N 01°17' E 103°42'0 0.0
2018-May-16 11:07N 01°17' E 103°42'0 0.0
2018-May-16 10:50N 01°17' E 103°42'0 0.0
2018-May-16 10:29N 01°17' E 103°42'0 0.0
2018-May-16 09:59N 01°17' E 103°42'0 0.0
2018-May-16 09:17N 01°17' E 103°42'0 0.0
2018-May-16 08:53N 01°17' E 103°42'0 0.0
2018-May-16 08:23N 01°17' E 103°42'0 0.0
2018-May-16 07:59N 01°17' E 103°42'0 0.0
2018-May-16 07:17N 01°17' E 103°42'0 0.0
2018-May-16 06:53N 01°17' E 103°42'0 0.0
2018-May-16 06:29N 01°17' E 103°42'0 0.0
2018-May-16 05:56N 01°17' E 103°42'0 0.0
2018-May-16 05:11N 01°17' E 103°42'0 0.0
2018-May-16 04:50N 01°17' E 103°42'0 0.0
2018-May-16 04:29N 01°17' E 103°42'0 0.0
2018-May-16 03:41N 01°17' E 103°42'0 0.0
2018-May-16 03:20N 01°17' E 103°42'0 0.0
2018-May-16 02:44N 01°17' E 103°42'0 0.0
2018-May-16 02:28N 01°17' E 103°42'0 0.0
2018-May-16 01:56N 01°17' E 103°42'0 0.0
2018-May-16 01:13N 01°17' E 103°42'0 0.0
2018-May-16 00:56N 01°17' E 103°42'0 0.0
2018-May-16 00:29N 01°17' E 103°42'0 0.0
2018-May-15 23:53N 01°17' E 103°42'0 0.0
2018-May-15 23:26N 01°17' E 103°42'0 0.0
2018-May-15 22:49N 01°17' E 103°42'0 0.0
2018-May-15 22:29N 01°17' E 103°42'0 0.0
2018-May-15 21:59N 01°17' E 103°42'0 0.0
2018-May-15 21:25N 01°17' E 103°42'0 0.0
2018-May-15 20:58N 01°17' E 103°42'0 0.0
2018-May-15 20:26N 01°17' E 103°42'0 0.0
2018-May-15 19:56N 01°17' E 103°42'0 0.0
2018-May-15 19:28N 01°17' E 103°42'0 0.0
2018-May-15 18:59N 01°17' E 103°42'0 0.0
2018-May-15 18:29N 01°17' E 103°42'0 0.0
2018-May-15 17:59N 01°17' E 103°42'0 0.0
2018-May-15 17:29N 01°17' E 103°42'0 0.0
2018-May-15 16:59N 01°17' E 103°42'0 0.0
2018-May-15 16:29N 01°17' E 103°42'0 0.0
2018-May-15 15:56N 01°17' E 103°42'0 0.0
2018-May-15 15:29N 01°17' E 103°42'0 0.0
2018-May-15 14:47N 01°17' E 103°42'0 0.0
2018-May-15 14:16N 01°17' E 103°42'0 0.0
2018-May-15 13:49N 01°17' E 103°42'0 0.0
2018-May-15 13:29N 01°17' E 103°42'0 0.0
2018-May-15 12:55N 01°17' E 103°42'0 0.0
2018-May-15 12:23N 01°17' E 103°42'0 0.0
2018-May-15 11:59N 01°17' E 103°42'0 0.0
2018-May-15 11:20N 01°17' E 103°42'0 0.0
2018-May-15 10:56N 01°17' E 103°42'0 0.0
2018-May-15 10:25N 01°17' E 103°42'0 0.0
2018-May-15 09:59N 01°17' E 103°42'0 0.0
2018-May-15 09:25N 01°17' E 103°42'0 0.0
2018-May-15 08:58N 01°17' E 103°42'0 0.0
2018-May-15 08:22N 01°17' E 103°42'0 0.0
2018-May-15 07:49N 01°17' E 103°42'0 0.0
2018-May-15 07:28N 01°17' E 103°42'0 0.0
2018-May-15 06:50N 01°17' E 103°42'0 0.0
2018-May-15 06:29N 01°17' E 103°42'0 0.0
2018-May-15 05:59N 01°17' E 103°42'0 0.0
2018-May-15 05:29N 01°17' E 103°42'0 0.0
2018-May-15 04:56N 01°17' E 103°42'0 0.0
2018-May-15 04:20N 01°17' E 103°42'0 0.0
2018-May-15 03:59N 01°17' E 103°42'0 0.0
2018-May-15 03:23N 01°17' E 103°42'0 0.0
2018-May-15 02:59N 01°17' E 103°42'0 0.0
2018-May-15 02:26N 01°17' E 103°42'0 0.0
2018-May-15 01:53N 01°17' E 103°42'0 0.0
2018-May-15 01:26N 01°17' E 103°42'0 0.0
2018-May-15 00:56N 01°17' E 103°42'0 0.0
2018-May-15 00:26N 01°17' E 103°42'0 0.0
2018-May-14 23:59N 01°17' E 103°42'0 0.0
2018-May-14 23:29N 01°17' E 103°42'0 0.0
2018-May-14 22:55N 01°17' E 103°42'0 0.0
2018-May-14 22:26N 01°17' E 103°42'0 0.0
2018-May-14 21:55N 01°17' E 103°42'0 0.0
2018-May-14 21:26N 01°17' E 103°42'0 0.0
2018-May-14 20:50N 01°17' E 103°42'0 0.0
2018-May-14 20:29N 01°17' E 103°42'0 0.0
2018-May-14 19:56N 01°17' E 103°42'0 0.0
2018-May-14 19:26N 01°17' E 103°42'0 0.0
2018-May-14 18:56N 01°17' E 103°42'0 0.0
2018-May-14 18:14N 01°17' E 103°42'0 0.0
2018-May-14 17:59N 01°17' E 103°42'0 0.0
2018-May-14 17:29N 01°17' E 103°42'0 0.0
2018-May-14 16:44N 01°17' E 103°42'0 0.0
2018-May-14 16:20N 01°17' E 103°42'0 0.0
2018-May-14 15:59N 01°17' E 103°42'0 0.0
2018-May-14 15:26N 01°17' E 103°42'0 0.0
2018-May-14 14:55N 01°17' E 103°42'0 0.0
2018-May-14 14:20N 01°17' E 103°42'0 0.0
2018-May-14 13:55N 01°17' E 103°42'0 0.0
2018-May-14 13:26N 01°17' E 103°42'0 0.0
2018-May-14 12:55N 01°17' E 103°42'0 0.0
2018-May-14 12:26N 01°17' E 103°42'0 0.1
2018-May-14 11:59N 01°17' E 103°42'1 1.5
2018-May-14 11:31N 01°18' E 103°42'3 5.8
2018-May-14 11:00N 01°17' E 103°39'611.7
2018-May-14 10:31N 01°11' E 103°41'612.7
2018-May-14 10:00N 01°11' E 103°47'714.4
2018-May-14 09:31N 01°14' E 103°54'4 8.3
2018-May-14 09:00N 01°17' E 103°57'0 0.4
2018-May-14 08:26N 01°17' E 103°57'0 0.3
2018-May-14 07:56N 01°17' E 103°57'0 0.2
2018-May-14 07:29N 01°17' E 103°57'0 0.0
2018-May-14 06:59N 01°17' E 103°57'0 0.0
2018-May-14 06:27N 01°17' E 103°57'0 0.0
2018-May-14 06:00N 01°17' E 103°57'0 0.2
2018-May-14 05:26N 01°17' E 103°57'0 0.2
2018-May-14 04:59N 01°17' E 103°57'0 0.1
2018-May-14 04:29N 01°17' E 103°57'0 0.0
2018-May-14 03:56N 01°17' E 103°57'0 0.0
2018-May-14 03:23N 01°17' E 103°57'0 0.0
2018-May-14 02:56N 01°17' E 103°57'0 0.1
2018-May-14 02:29N 01°17' E 103°57'0 0.0
2018-May-14 01:56N 01°17' E 103°57'0 0.0
2018-May-14 01:20N 01°17' E 103°57'0 0.2
2018-May-14 00:59N 01°17' E 103°57'0 0.1
2018-May-14 00:29N 01°17' E 103°57'0 0.0
2018-May-13 23:53N 01°17' E 103°57'0 0.2
2018-May-13 23:29N 01°17' E 103°57'0 0.3
2018-May-13 22:56N 01°17' E 103°57'0 0.2
2018-May-13 22:29N 01°17' E 103°57'0 0.0
2018-May-13 21:56N 01°17' E 103°57'0 0.1
2018-May-13 21:26N 01°17' E 103°57'0 0.1
2018-May-13 20:57N 01°17' E 103°57'0 0.0
2018-May-13 20:29N 01°17' E 103°57'0 0.0
2018-May-13 19:57N 01°17' E 103°57'0 0.0
2018-May-13 19:29N 01°17' E 103°57'0 0.0
2018-May-13 18:59N 01°17' E 103°57'0 0.0
2018-May-13 18:27N 01°17' E 103°57'0 0.0
2018-May-13 17:59N 01°17' E 103°57'0 0.0
2018-May-13 17:26N 01°17' E 103°57'0 0.0
2018-May-13 16:57N 01°17' E 103°57'0 0.0
2018-May-13 16:27N 01°17' E 103°57'0 0.3
2018-May-13 15:59N 01°17' E 103°57'0 0.2
2018-May-13 15:27N 01°17' E 103°57'0 0.0
2018-May-13 14:59N 01°17' E 103°57'0 0.0
2018-May-13 14:26N 01°17' E 103°57'0 0.0
2018-May-13 13:59N 01°17' E 103°57'0 0.1
2018-May-13 13:30N 01°17' E 103°57'0 0.1
2018-May-13 12:59N 01°17' E 103°57'0 0.0
2018-May-13 12:29N 01°17' E 103°57'0 0.1
2018-May-13 11:59N 01°17' E 103°57'0 0.1
2018-May-13 11:20N 01°17' E 103°57'0 0.1
2018-May-13 10:50N 01°17' E 103°57'0 0.0
2018-May-13 10:26N 01°17' E 103°57'0 0.0
2018-May-13 09:56N 01°17' E 103°57'0 0.1
2018-May-13 09:23N 01°17' E 103°57'0 0.3
2018-May-13 08:50N 01°17' E 103°57'0 0.2
2018-May-13 08:29N 01°17' E 103°57'0 0.0
2018-May-13 07:56N 01°17' E 103°57'0 0.0
2018-May-13 07:29N 01°17' E 103°57'0 0.0
2018-May-13 06:59N 01°17' E 103°57'0 0.1
2018-May-13 06:29N 01°17' E 103°57'0 0.0
2018-May-13 05:59N 01°17' E 103°57'0 0.0
2018-May-13 05:21N 01°17' E 103°57'0 0.2
2018-May-13 05:00N 01°17' E 103°57'0 0.0
2018-May-13 04:30N 01°17' E 103°57'0 0.0
2018-May-13 03:48N 01°17' E 103°57'0 0.0
2018-May-13 03:29N 01°17' E 103°57'0 0.1
2018-May-13 02:59N 01°17' E 103°57'0 0.1
2018-May-13 02:29N 01°17' E 103°57'0 0.1
2018-May-13 01:59N 01°17' E 103°57'0 0.0
2018-May-13 01:29N 01°17' E 103°57'0 0.1
2018-May-13 00:56N 01°17' E 103°57'0 0.0
2018-May-13 00:29N 01°17' E 103°57'0 0.1
2018-May-12 23:59N 01°17' E 103°57'0 0.1
2018-May-12 23:29N 01°17' E 103°57'0 0.0
2018-May-12 22:56N 01°17' E 103°57'0 0.0
2018-May-12 22:29N 01°17' E 103°57'0 0.0
2018-May-12 21:44N 01°17' E 103°57'0 0.2
2018-May-12 21:23N 01°17' E 103°57'0 0.1
2018-May-12 20:59N 01°17' E 103°57'0 0.1
2018-May-12 20:26N 01°17' E 103°57'0 0.1
2018-May-12 19:59N 01°17' E 103°57'0 0.0
2018-May-12 19:29N 01°17' E 103°57'0 0.0
2018-May-12 18:57N 01°17' E 103°57'0 0.1
2018-May-12 18:29N 01°17' E 103°57'0 0.1
2018-May-12 17:53N 01°17' E 103°57'0 0.0
2018-May-12 17:17N 01°17' E 103°57'0 0.0
2018-May-12 16:58N 01°17' E 103°57'0 0.1
2018-May-12 16:29N 01°17' E 103°57'0 0.0
2018-May-12 15:53N 01°17' E 103°57'0 0.1
2018-May-12 15:26N 01°17' E 103°57'0 0.1
2018-May-12 14:59N 01°17' E 103°57'0 0.0
2018-May-12 14:29N 01°17' E 103°57'0 0.0
2018-May-12 13:59N 01°17' E 103°57'0 0.0
2018-May-12 13:23N 01°17' E 103°57'0 0.2
2018-May-12 12:56N 01°17' E 103°57'0 0.0
2018-May-12 12:23N 01°17' E 103°57'0 0.0
2018-May-12 11:53N 01°17' E 103°57'0 0.1
2018-May-12 11:29N 01°17' E 103°57'0 0.0
2018-May-12 10:59N 01°17' E 103°57'0 0.1
2018-May-12 10:29N 01°17' E 103°57'0 0.1
2018-May-12 09:40N 01°17' E 103°57'0 0.0
2018-May-12 09:29N 01°17' E 103°57'0 0.0
2018-May-12 08:59N 01°17' E 103°57'0 0.1
2018-May-12 08:27N 01°17' E 103°57'0 0.1
2018-May-12 07:50N 01°17' E 103°57'0 0.2
2018-May-12 07:17N 01°17' E 103°57'0 0.2
2018-May-12 06:59N 01°17' E 103°57'0 0.1
2018-May-12 06:19N 01°17' E 103°57'0 0.0
2018-May-12 05:56N 01°17' E 103°57'0 0.0
2018-May-12 05:29N 01°17' E 103°57'0 0.0
2018-May-12 04:43N 01°17' E 103°57'0 0.2
2018-May-12 04:26N 01°17' E 103°57'0 0.0
2018-May-12 03:56N 01°17' E 103°57'0 0.1
2018-May-12 03:20N 01°17' E 103°57'0 0.1
2018-May-12 02:38N 01°17' E 103°57'0 0.0
2018-May-12 02:25N 01°17' E 103°57'0 0.0
2018-May-12 01:50N 01°17' E 103°57'0 0.1
2018-May-12 00:35N 01°17' E 103°57'0 0.1
2018-May-12 00:26N 01°17' E 103°57'0 0.1
2018-May-11 23:56N 01°17' E 103°57'0 0.1
2018-May-11 23:23N 01°17' E 103°57'0 0.1
2018-May-11 22:53N 01°17' E 103°57'0 0.2
2018-May-11 22:29N 01°17' E 103°57'0 0.0
2018-May-11 21:59N 01°17' E 103°57'0 0.0
2018-May-11 21:29N 01°17' E 103°57'0 0.0
2018-May-11 20:58N 01°17' E 103°57'0 0.0
2018-May-11 20:26N 01°17' E 103°57'0 0.0
2018-May-11 19:59N 01°17' E 103°57'0 0.1
2018-May-11 19:29N 01°17' E 103°57'0 0.0
2018-May-11 18:53N 01°17' E 103°57'0 0.0
2018-May-11 18:30N 01°17' E 103°57'0 0.0
2018-May-11 17:56N 01°17' E 103°57'0 0.0
2018-May-11 17:23N 01°17' E 103°57'0 0.1
2018-May-11 16:55N 01°17' E 103°57'0 0.0
2018-May-11 16:29N 01°17' E 103°57'0 0.0
2018-May-11 15:56N 01°17' E 103°57'0 0.0
2018-May-11 15:29N 01°17' E 103°57'0 0.0
2018-May-11 14:56N 01°17' E 103°57'0 0.1
2018-May-11 14:17N 01°17' E 103°57'0 0.1
2018-May-11 13:11N 01°17' E 103°57'0 0.2
2018-May-11 12:49N 01°17' E 103°57'0 0.0
2018-May-11 12:26N 01°17' E 103°57'0 0.1
2018-May-11 11:56N 01°17' E 103°57'0 0.0
2018-May-11 11:26N 01°17' E 103°57'0 0.1
2018-May-11 10:47N 01°17' E 103°57'0 0.0
2018-May-11 10:29N 01°17' E 103°57'0 0.0
2018-May-11 09:58N 01°17' E 103°57'0 0.1
2018-May-11 09:26N 01°17' E 103°57'0 0.1
2018-May-11 08:53N 01°17' E 103°57'0 0.2
2018-May-11 08:28N 01°17' E 103°57'0 0.1
2018-May-11 07:59N 01°17' E 103°57'0 0.0
2018-May-11 07:28N 01°17' E 103°57'0 0.0
2018-May-11 06:55N 01°17' E 103°57'0 0.1
2018-May-11 06:29N 01°17' E 103°57'0 0.1
2018-May-11 05:48N 01°17' E 103°57'0 0.0
2018-May-11 05:19N 01°17' E 103°57'0 0.0
2018-May-11 04:56N 01°17' E 103°57'0 0.0
2018-May-11 04:29N 01°17' E 103°57'0 0.0
2018-May-11 03:59N 01°17' E 103°57'0 0.0
2018-May-11 03:26N 01°17' E 103°57'0 0.0
2018-May-11 02:59N 01°17' E 103°57'0 0.0
2018-May-11 02:29N 01°17' E 103°57'0 0.1
2018-May-11 01:59N 01°17' E 103°57'0 0.1
2018-May-11 01:20N 01°17' E 103°57'0 0.2
2018-May-11 00:50N 01°17' E 103°57'0 0.1
2018-May-11 00:29N 01°17' E 103°57'0 0.0
2018-May-10 23:59N 01°17' E 103°57'0 0.1
2018-May-10 23:26N 01°17' E 103°57'0 0.0
2018-May-10 22:59N 01°17' E 103°57'0 0.0
2018-May-10 22:29N 01°17' E 103°57'0 0.0
2018-May-10 21:56N 01°17' E 103°57'0 0.0
2018-May-10 21:26N 01°17' E 103°57'0 0.0
2018-May-10 20:56N 01°17' E 103°57'0 0.0
2018-May-10 20:29N 01°17' E 103°57'0 0.0
2018-May-10 19:58N 01°17' E 103°57'0 0.0
2018-May-10 19:23N 01°17' E 103°57'0 0.0
2018-May-10 18:55N 01°17' E 103°57'0 0.0
2018-May-10 18:26N 01°17' E 103°57'0 0.0
2018-May-10 17:58N 01°17' E 103°57'0 0.0
2018-May-10 17:28N 01°17' E 103°57'0 0.0
2018-May-10 16:55N 01°17' E 103°57'0 0.0
2018-May-10 16:23N 01°17' E 103°57'0 0.0
2018-May-10 15:59N 01°17' E 103°57'0 0.0
2018-May-10 15:29N 01°17' E 103°57'0 0.0
2018-May-10 14:56N 01°17' E 103°57'0 0.0
2018-May-10 14:17N 01°17' E 103°57'0 0.0
2018-May-10 13:56N 01°17' E 103°57'0 0.0
2018-May-10 13:26N 01°17' E 103°57'0 0.0
2018-May-10 12:47N 01°17' E 103°57'0 0.0
2018-May-10 12:14N 01°17' E 103°57'0 0.0
2018-May-10 11:58N 01°17' E 103°57'0 0.0
2018-May-10 11:26N 01°17' E 103°57'0 0.0
2018-May-10 10:52N 01°17' E 103°57'0 0.0
2018-May-10 10:29N 01°17' E 103°57'0 0.0
2018-May-10 09:59N 01°17' E 103°57'0 0.0
2018-May-10 09:20N 01°17' E 103°57'0 0.1
2018-May-10 08:53N 01°17' E 103°57'0 0.2
2018-May-10 08:29N 01°17' E 103°57'0 0.2
2018-May-10 07:59N 01°17' E 103°57'0 0.0
2018-May-10 07:23N 01°17' E 103°57'0 0.0
2018-May-10 06:59N 01°17' E 103°57'0 0.0
2018-May-10 06:28N 01°17' E 103°57'0 0.0
2018-May-10 05:59N 01°17' E 103°57'0 0.1
2018-May-10 05:26N 01°17' E 103°57'0 0.1
2018-May-10 04:59N 01°17' E 103°57'0 0.1
2018-May-10 04:29N 01°17' E 103°57'0 0.0
2018-May-10 03:58N 01°17' E 103°57'0 0.0
2018-May-10 03:26N 01°17' E 103°57'0 0.0
2018-May-10 02:53N 01°17' E 103°57'0 0.0
2018-May-10 02:26N 01°17' E 103°57'0 0.0
2018-May-10 01:55N 01°17' E 103°57'0 0.0
2018-May-10 01:26N 01°17' E 103°57'0 0.0
2018-May-10 00:55N 01°17' E 103°57'0 0.0
2018-May-10 00:29N 01°17' E 103°57'0 0.1
2018-May-09 23:56N 01°17' E 103°57'0 0.0
2018-May-09 23:29N 01°17' E 103°57'0 0.2
2018-May-09 22:53N 01°17' E 103°57'0 0.1
2018-May-09 22:26N 01°17' E 103°57'0 0.1
2018-May-09 21:59N 01°17' E 103°57'0 0.1
2018-May-09 21:29N 01°17' E 103°57'0 0.1
2018-May-09 20:59N 01°17' E 103°57'0 0.0
2018-May-09 20:22N 01°17' E 103°57'0 0.0
2018-May-09 19:50N 01°17' E 103°57'0 0.0
2018-May-09 19:16N 01°17' E 103°57'0 0.0
2018-May-09 18:50N 01°17' E 103°57'0 0.0
2018-May-09 18:17N 01°17' E 103°57'0 0.0
2018-May-09 17:53N 01°17' E 103°57'0 0.0
2018-May-09 17:13N 01°17' E 103°57'0 0.0
2018-May-09 16:47N 01°17' E 103°57'0 0.0
2018-May-09 16:23N 01°17' E 103°57'0 0.0
2018-May-09 15:59N 01°17' E 103°57'0 0.0
2018-May-09 15:28N 01°17' E 103°57'0 0.0
2018-May-09 14:56N 01°17' E 103°57'0 0.0
2018-May-09 13:50N 01°17' E 103°57'0 0.0
2018-May-09 13:26N 01°17' E 103°57'0 0.0
2018-May-09 12:53N 01°17' E 103°57'0 0.0
2018-May-09 12:20N 01°17' E 103°57'0 0.0
2018-May-09 11:43N 01°17' E 103°57'0 0.0
2018-May-09 11:23N 01°17' E 103°57'0 0.0
2018-May-09 10:44N 01°17' E 103°57'0 0.0
2018-May-09 10:28N 01°17' E 103°57'0 0.0
2018-May-09 09:55N 01°17' E 103°57'0 0.0
2018-May-09 09:29N 01°17' E 103°57'0 0.0
2018-May-09 08:53N 01°17' E 103°57'0 0.1
2018-May-09 08:26N 01°17' E 103°57'0 0.2
2018-May-09 07:59N 01°17' E 103°57'0 0.0
2018-May-09 07:29N 01°17' E 103°57'0 0.1
2018-May-09 06:50N 01°17' E 103°57'0 0.2
2018-May-09 06:26N 01°17' E 103°57'0 0.1
2018-May-09 05:41N 01°17' E 103°57'0 0.0
2018-May-09 05:28N 01°17' E 103°57'0 0.0
2018-May-09 04:56N 01°17' E 103°57'0 0.1
2018-May-09 04:28N 01°17' E 103°57'0 0.0
2018-May-09 03:59N 01°17' E 103°57'0 0.0
2018-May-09 03:28N 01°17' E 103°57'0 0.0
2018-May-09 02:59N 01°17' E 103°57'0 0.0
2018-May-09 02:28N 01°17' E 103°57'0 0.0
2018-May-09 01:57N 01°17' E 103°57'0 0.0
2018-May-09 01:27N 01°17' E 103°57'0 0.0
2018-May-09 00:54N 01°17' E 103°57'0 0.0
2018-May-09 00:30N 01°17' E 103°57'0 0.0
2018-May-09 00:00N 01°17' E 103°57'0 0.0
2018-May-08 23:30N 01°17' E 103°57'0 0.1
2018-May-08 23:00N 01°17' E 103°57'0 0.1
2018-May-08 22:30N 01°17' E 103°57'0 0.1
2018-May-08 21:58N 01°17' E 103°57'0 0.1
2018-May-08 21:27N 01°17' E 103°57'0 0.1
2018-May-08 20:57N 01°17' E 103°57'0 0.0
2018-May-08 20:27N 01°17' E 103°57'0 0.0
2018-May-08 19:39N 01°17' E 103°57'0 0.0
2018-May-08 19:30N 01°17' E 103°57'0 0.0
2018-May-08 18:54N 01°17' E 103°57'0 0.0
2018-May-08 18:24N 01°17' E 103°57'0 0.1
2018-May-08 17:57N 01°17' E 103°57'0 0.1
2018-May-08 17:15N 01°17' E 103°57'0 0.0
2018-May-08 16:48N 01°17' E 103°57'0 0.2
2018-May-08 16:30N 01°17' E 103°57'0 0.1
2018-May-08 15:51N 01°17' E 103°57'0 0.0
2018-May-08 15:15N 01°17' E 103°57'0 0.0
2018-May-08 14:52N 01°17' E 103°57'0 0.0
2018-May-08 14:12N 01°17' E 103°57'0 0.0
2018-May-08 13:49N 01°17' E 103°57'0 0.0
2018-May-08 13:18N 01°17' E 103°57'0 0.0
2018-May-08 12:57N 01°17' E 103°57'0 0.0
2018-May-08 12:30N 01°17' E 103°57'0 0.1
2018-May-08 11:57N 01°17' E 103°57'0 0.0
2018-May-08 11:28N 01°17' E 103°57'0 0.0
2018-May-08 10:52N 01°17' E 103°57'0 0.1
2018-May-08 10:21N 01°17' E 103°57'0 0.0
2018-May-08 09:51N 01°17' E 103°57'0 0.0
2018-May-08 09:30N 01°17' E 103°57'0 0.0
2018-May-08 08:48N 01°17' E 103°57'0 0.1
2018-May-08 08:30N 01°17' E 103°57'0 0.1
2018-May-08 07:54N 01°17' E 103°57'0 0.0
2018-May-08 07:29N 01°17' E 103°57'0 0.1
2018-May-08 06:56N 01°17' E 103°57'0 0.0
2018-May-08 06:27N 01°17' E 103°57'0 0.0
2018-May-08 05:54N 01°17' E 103°57'0 0.1
2018-May-08 05:24N 01°17' E 103°57'0 0.0
2018-May-08 04:48N 01°17' E 103°57'0 0.0
2018-May-08 04:24N 01°17' E 103°57'0 0.0
2018-May-08 03:51N 01°17' E 103°57'0 0.0
2018-May-08 03:30N 01°17' E 103°57'0 0.0
2018-May-08 02:55N 01°17' E 103°57'0 0.0
2018-May-08 02:23N 01°17' E 103°57'0 0.0
2018-May-08 01:56N 01°17' E 103°57'0 0.0
2018-May-08 01:29N 01°17' E 103°57'0 0.0
2018-May-08 00:58N 01°17' E 103°57'0 0.0
2018-May-08 00:21N 01°17' E 103°57'0 0.0
2018-May-07 23:58N 01°17' E 103°57'0 0.0
2018-May-07 23:30N 01°17' E 103°57'0 0.0
2018-May-07 22:56N 01°17' E 103°57'0 0.0
2018-May-07 22:29N 01°17' E 103°57'0 0.0
2018-May-07 21:58N 01°17' E 103°57'0 0.0
2018-May-07 21:25N 01°17' E 103°57'0 0.1
2018-May-07 20:58N 01°17' E 103°57'0 0.1
2018-May-07 20:29N 01°17' E 103°57'0 0.1
2018-May-07 19:55N 01°17' E 103°57'0 0.1
2018-May-07 19:30N 01°17' E 103°57'0 0.1
2018-May-07 18:48N 01°17' E 103°57'0 0.1
2018-May-07 18:30N 01°17' E 103°57'0 0.0
2018-May-07 17:52N 01°17' E 103°57'0 0.1
2018-May-07 17:27N 01°17' E 103°57'0 0.0
2018-May-07 16:57N 01°17' E 103°57'0 0.1
2018-May-07 16:30N 01°17' E 103°57'0 0.0
2018-May-07 15:48N 01°17' E 103°57'0 0.0
2018-May-07 15:30N 01°17' E 103°57'0 0.0
2018-May-07 14:54N 01°17' E 103°57'0 0.0
2018-May-07 14:18N 01°17' E 103°57'0 0.0
2018-May-07 13:42N 01°17' E 103°57'  

Dump ship's entire track history